Terminal Aerodrome Forecast
Issued by NWS Quad Cities IA IL

Home | Current Version | Previous Version | Text Only | Print | Product List | Glossary On
Versions: 1 2 3 4 5 6 7 8 9 10 11 12 13 14 15 16 17 18 19 20 21 22
875
FTUS43 KDVN 171839 AAA
TAFMLI
TAF AMD
KMLI 171839Z 1719/1818 21007KT 1/2SM SN FG OVC009
      TEMPO 1719/1720 1/4SM +SN OVC008
     FM172000 24006KT 3SM -SN OVC010
     FM172100 27010KT P6SM OVC025
     FM180100 28006KT P6SM BKN250
     FM181500 16012KT P6SM BKN250=

USA.gov is the U.S. government's official web portal to all federal, state and local government web resources and services.